createdAt,value
2022-12-23T00:00:57.934Z,99347.50
2022-12-23T00:04:59.679Z,99355.06
2022-12-23T00:09:01.719Z,99356.00
2022-12-23T00:13:22.508Z,99354.28
2022-12-23T00:17:24.559Z,99351.06
2022-12-23T00:21:26.364Z,99364.91
2022-12-23T00:25:40.348Z,99361.63
2022-12-23T00:29:42.456Z,99356.53
2022-12-23T00:33:46.472Z,99358.09
2022-12-23T00:37:48.216Z,99349.94
2022-12-23T00:42:08.701Z,99357.56
2022-12-23T00:46:10.449Z,99357.09
2022-12-23T00:50:12.411Z,99351.88
2022-12-23T00:54:14.216Z,99362.44
2022-12-23T00:58:17.541Z,99371.66
2022-12-23T01:02:37.835Z,99372.78
2022-12-23T01:06:40.102Z,99364.00
2022-12-23T01:10:41.827Z,99368.81
2022-12-23T01:14:43.794Z,99382.00
2022-12-23T01:18:45.469Z,99393.34
2022-12-23T01:22:47.719Z,99373.81
2022-12-23T01:26:49.378Z,99385.59
2022-12-23T01:30:51.319Z,99395.66
2022-12-23T01:34:53.167Z,99406.78
2022-12-23T01:38:58.096Z,99407.06
2022-12-23T01:42:59.826Z,99404.34
2022-12-23T01:47:03.908Z,99404.53
2022-12-23T01:51:16.097Z,99401.47
2022-12-23T01:55:25.329Z,99388.28
2022-12-23T01:59:46.195Z,99390.69
2022-12-23T02:03:50.278Z,99389.47
2022-12-23T02:08:12.373Z,99393.94
2022-12-23T02:12:41.388Z,99391.63
2022-12-23T02:16:53.744Z,99407.09
2022-12-23T02:21:27.532Z,99399.19
2022-12-23T02:25:41.696Z,99392.84
2022-12-23T02:30:05.541Z,99404.22
2022-12-23T02:34:38.423Z,99405.53
2022-12-23T02:39:05.957Z,99399.47
2022-12-23T02:43:24.283Z,99411.78
2022-12-23T02:47:38.047Z,99404.03
2022-12-23T02:51:44.350Z,99403.66
2022-12-23T02:55:49.097Z,99418.19
2022-12-23T02:59:52.095Z,99423.59
2022-12-23T03:03:54.383Z,99434.31
2022-12-23T03:08:00.222Z,99432.69
2022-12-23T03:12:17.274Z,99424.34
2022-12-23T03:16:56.674Z,99441.09
2022-12-23T03:21:05.222Z,99440.91
2022-12-23T03:25:22.011Z,99430.13
2022-12-23T03:29:40.821Z,99430.03
2022-12-23T03:33:47.993Z,99435.84
2022-12-23T03:37:53.212Z,99443.06
2022-12-23T03:42:06.333Z,99430.44
2022-12-23T03:46:12.989Z,99434.91
2022-12-23T03:50:19.405Z,99437.25
2022-12-23T03:54:27.987Z,99439.66
2022-12-23T03:58:42.400Z,99415.56
2022-12-23T04:03:03.344Z,99415.88
2022-12-23T04:07:11.142Z,99423.22
2022-12-23T04:11:13.367Z,99429.59
2022-12-23T04:15:20.810Z,99433.78
2022-12-23T04:19:23.258Z,99414.06
2022-12-23T04:23:24.910Z,99401.88
2022-12-23T04:27:26.927Z,99414.94
2022-12-23T04:31:28.730Z,99419.53
2022-12-23T04:35:30.859Z,99422.88
2022-12-23T04:39:32.553Z,99438.81
2022-12-23T04:43:34.547Z,99431.81
2022-12-23T04:47:36.229Z,99430.53
2022-12-23T04:51:38.205Z,99427.34
2022-12-23T04:55:39.896Z,99433.31
2022-12-23T04:59:42.180Z,99433.78
2022-12-23T05:03:43.915Z,99430.16
2022-12-23T05:07:49.612Z,99432.94
2022-12-23T05:11:51.499Z,99445.50
2022-12-23T05:15:54.391Z,99452.41
2022-12-23T05:19:56.374Z,99446.13
2022-12-23T05:23:58.071Z,99451.34
2022-12-23T05:28:00.058Z,99443.75
2022-12-23T05:32:01.814Z,99450.19
2022-12-23T05:36:04.673Z,99460.06
2022-12-23T05:40:06.996Z,99459.19
2022-12-23T05:44:09.267Z,99459.44
2022-12-23T05:48:11.084Z,99467.69
2022-12-23T05:52:13.137Z,99465.97
2022-12-23T05:56:14.846Z,99472.84
2022-12-23T06:00:17.294Z,99483.47
2022-12-23T06:04:19.062Z,99493.16
2022-12-23T06:08:21.306Z,99490.91
2022-12-23T06:12:23.076Z,99501.47
2022-12-23T06:16:25.096Z,99507.06
2022-12-23T06:20:26.783Z,99505.91
2022-12-23T06:24:28.727Z,99505.19
2022-12-23T06:28:30.480Z,99501.91
2022-12-23T06:32:37.935Z,99504.50
2022-12-23T06:36:40.364Z,99507.38
2022-12-23T06:40:42.340Z,99526.00
2022-12-23T06:44:44.071Z,99513.69
2022-12-23T06:48:46.020Z,99520.41
2022-12-23T06:52:49.002Z,99531.53
2022-12-23T06:56:51.054Z,99534.53
2022-12-23T07:00:52.750Z,99537.75
2022-12-23T07:04:54.710Z,99536.25
2022-12-23T07:08:56.391Z,99541.13
2022-12-23T07:12:58.362Z,99550.06
2022-12-23T07:17:00.122Z,99546.16
2022-12-23T07:21:03.199Z,99554.19
2022-12-23T07:25:05.343Z,99565.91
2022-12-23T07:29:07.711Z,99570.41
2022-12-23T07:33:09.435Z,99560.31
2022-12-23T07:37:11.483Z,99554.25
2022-12-23T07:41:13.278Z,99547.72
2022-12-23T07:45:16.177Z,99553.72
2022-12-23T07:49:18.039Z,99548.78
2022-12-23T07:53:20.349Z,99543.72
2022-12-23T07:57:22.002Z,99533.41
2022-12-23T08:01:24.096Z,99527.38
2022-12-23T08:05:26.062Z,99538.16
2022-12-23T08:09:28.065Z,99543.72
2022-12-23T08:13:31.714Z,99548.19
2022-12-23T08:17:33.744Z,99558.66
2022-12-23T08:21:35.463Z,99556.03
2022-12-23T08:25:37.418Z,99558.06
2022-12-23T08:29:40.522Z,99549.16
2022-12-23T08:33:45.450Z,99554.34
2022-12-23T08:37:47.158Z,99566.06
2022-12-23T08:41:49.323Z,99545.59
2022-12-23T08:45:51.320Z,99550.31
2022-12-23T08:49:53.263Z,99541.56
2022-12-23T08:54:00.635Z,99538.47
2022-12-23T08:58:03.285Z,99548.47
2022-12-23T09:02:05.081Z,99530.41
2022-12-23T09:06:13.266Z,99525.38
2022-12-23T09:10:15.076Z,99518.94
2022-12-23T09:14:17.113Z,99519.47
2022-12-23T09:18:18.887Z,99531.19
2022-12-23T09:22:20.865Z,99529.16
2022-12-23T09:26:25.669Z,99516.50
2022-12-23T09:30:27.829Z,99501.03
2022-12-23T09:34:29.490Z,99490.41
2022-12-23T09:38:31.655Z,99482.13
2022-12-23T09:42:51.830Z,99473.84
2022-12-23T09:46:58.345Z,99462.13
2022-12-23T09:51:01.954Z,99462.66
2022-12-23T09:55:04.322Z,99456.53
2022-12-23T09:59:14.741Z,99453.19
2022-12-23T10:03:26.165Z,99443.38
2022-12-23T10:07:39.938Z,99444.69
2022-12-23T10:11:44.969Z,99442.16
2022-12-23T10:15:50.470Z,99437.53
2022-12-23T10:19:54.094Z,99440.00
2022-12-23T10:23:55.922Z,99443.22
2022-12-23T10:27:57.869Z,99432.38
2022-12-23T10:32:11.661Z,99436.22
2022-12-23T10:36:32.063Z,99432.31
2022-12-23T10:41:08.961Z,99427.63
2022-12-23T10:45:49.389Z,99420.28
2022-12-23T10:50:14.345Z,99415.13
2022-12-23T10:54:20.270Z,99414.09
2022-12-23T10:58:22.606Z,99428.94
2022-12-23T11:02:47.277Z,99421.41
2022-12-23T11:07:18.110Z,99415.59
2022-12-23T11:11:14.512Z,99417.66
2022-12-23T11:15:29.232Z,99418.13
2022-12-23T11:19:31.070Z,99409.47
2022-12-23T11:23:36.555Z,99413.03
2022-12-23T11:27:44.493Z,99410.75
2022-12-23T11:31:46.752Z,99399.22
2022-12-23T11:36:00.521Z,99386.00
2022-12-23T11:40:14.676Z,99374.66
2022-12-23T11:44:32.857Z,99386.56
2022-12-23T11:48:34.511Z,99385.38
2022-12-23T11:52:36.761Z,99375.75
2022-12-23T11:56:40.351Z,99370.28
2022-12-23T12:00:55.581Z,99358.44
2022-12-23T12:05:05.261Z,99355.38
2022-12-23T12:09:07.345Z,99350.25
2022-12-23T12:13:28.311Z,99358.56
2022-12-23T12:17:45.224Z,99354.91
2022-12-23T12:21:49.390Z,99343.25
2022-12-23T12:25:57.323Z,99342.13
2022-12-23T12:30:08.431Z,99343.34
2022-12-23T12:34:33.902Z,99353.53
2022-12-23T12:38:39.143Z,99346.13
2022-12-23T12:42:44.136Z,99346.88
2022-12-23T12:46:58.748Z,99354.41
2022-12-23T12:51:27.285Z,99347.03
2022-12-23T12:55:34.824Z,99359.22
2022-12-23T12:59:38.746Z,99357.75
2022-12-23T13:04:12.539Z,99351.78
2022-12-23T13:08:20.712Z,99356.22
2022-12-23T13:12:46.071Z,99362.66
2022-12-23T13:17:05.178Z,99363.84
2022-12-23T13:21:16.551Z,99356.84
2022-12-23T13:25:26.888Z,99351.31
2022-12-23T13:29:58.265Z,99362.22
2022-12-23T13:34:19.150Z,99369.13
2022-12-23T13:38:23.754Z,99358.00
2022-12-23T13:42:33.093Z,99355.47
2022-12-23T13:47:15.669Z,99359.19
2022-12-23T13:51:35.871Z,99356.28
2022-12-23T13:56:19.511Z,99361.66
2022-12-23T14:00:30.681Z,99359.56
2022-12-23T14:04:58.735Z,99344.69
2022-12-23T14:09:02.978Z,99340.72
2022-12-23T14:13:08.717Z,99334.59
2022-12-23T14:17:30.348Z,99324.91
2022-12-23T14:21:41.183Z,99321.53
2022-12-23T14:25:55.396Z,99319.78
2022-12-23T14:30:22.380Z,99315.78
2022-12-23T14:34:26.427Z,99316.34
2022-12-23T14:38:32.769Z,99321.63
2022-12-23T14:42:43.005Z,99330.59
2022-12-23T14:46:45.528Z,99335.81
2022-12-23T14:50:59.491Z,99345.44
2022-12-23T14:55:31.944Z,99343.00
2022-12-23T14:59:48.168Z,99332.84
2022-12-23T15:03:57.538Z,99338.97
2022-12-23T15:08:04.353Z,99341.59
2022-12-23T15:12:16.025Z,99346.91
2022-12-23T15:16:18.806Z,99344.94
2022-12-23T15:20:23.845Z,99341.13
2022-12-23T15:24:26.174Z,99349.50
2022-12-23T15:28:39.353Z,99357.16
2022-12-23T15:32:44.340Z,99367.66
2022-12-23T15:36:48.006Z,99364.28
2022-12-23T15:41:01.659Z,99360.38
2022-12-23T15:45:23.368Z,99358.69
2022-12-23T15:49:25.373Z,99353.56
2022-12-23T15:53:34.876Z,99357.94
2022-12-23T15:57:50.105Z,99366.22
2022-12-23T16:01:53.291Z,99362.31
2022-12-23T16:06:05.090Z,99349.38
2022-12-23T16:10:21.833Z,99350.47
2022-12-23T16:14:27.769Z,99372.22
2022-12-23T16:18:32.214Z,99374.97
2022-12-23T16:22:36.173Z,99366.28
2022-12-23T16:26:42.489Z,99350.09
2022-12-23T16:30:49.476Z,99346.38
2022-12-23T16:34:51.642Z,99347.44
2022-12-23T16:39:00.544Z,99354.81
2022-12-23T16:43:02.453Z,99344.50
2022-12-23T16:47:12.754Z,99356.00
2022-12-23T16:51:20.235Z,99354.03
2022-12-23T16:55:21.940Z,99357.25
2022-12-23T16:59:25.877Z,99353.09
2022-12-23T17:03:27.947Z,99359.78
2022-12-23T17:07:29.574Z,99374.78
2022-12-23T17:11:37.820Z,99372.22
2022-12-23T17:15:39.661Z,99372.22
2022-12-23T17:19:42.478Z,99368.00
2022-12-23T17:23:44.236Z,99379.16
2022-12-23T17:27:46.160Z,99371.22
2022-12-23T17:31:49.071Z,99373.31
2022-12-23T17:35:51.130Z,99360.28
2022-12-23T17:39:52.902Z,99355.66
2022-12-23T17:43:55.337Z,99362.31
2022-12-23T17:47:57.618Z,99362.28
2022-12-23T17:51:59.580Z,99376.44
2022-12-23T17:56:01.212Z,99385.22
2022-12-23T18:00:03.899Z,99384.28
2022-12-23T18:04:13.593Z,99385.31
2022-12-23T18:08:16.927Z,99381.81
2022-12-23T18:12:37.400Z,99385.16
2022-12-23T18:16:39.615Z,99375.75
2022-12-23T18:20:42.876Z,99385.72
2022-12-23T18:24:46.029Z,99386.63
2022-12-23T18:28:48.028Z,99388.03
2022-12-23T18:32:49.879Z,99393.91
2022-12-23T18:36:52.324Z,99392.97
2022-12-23T18:40:56.531Z,99399.53
2022-12-23T18:44:58.207Z,99409.78
2022-12-23T18:49:00.229Z,99412.19
2022-12-23T18:53:02.777Z,99413.69
2022-12-23T18:57:05.184Z,99422.94
2022-12-23T19:01:14.751Z,99418.63
2022-12-23T19:05:23.544Z,99420.41
2022-12-23T19:09:26.192Z,99433.31
2022-12-23T19:13:28.073Z,99422.75
2022-12-23T19:17:30.021Z,99420.00
2022-12-23T19:21:31.660Z,99437.19
2022-12-23T19:25:34.127Z,99440.06
2022-12-23T19:29:35.993Z,99440.44
2022-12-23T19:33:38.788Z,99458.66
2022-12-23T19:37:41.634Z,99454.09
2022-12-23T19:41:43.801Z,99461.00
2022-12-23T19:45:45.468Z,99471.28
2022-12-23T19:49:47.442Z,99483.75
2022-12-23T19:53:51.588Z,99492.25
2022-12-23T19:57:53.500Z,99482.63
2022-12-23T20:01:55.273Z,99485.16
2022-12-23T20:05:57.329Z,99482.00
2022-12-23T20:09:59.203Z,99483.59
2022-12-23T20:14:02.176Z,99492.16
2022-12-23T20:18:04.058Z,99493.28
2022-12-23T20:22:05.977Z,99486.75
2022-12-23T20:26:08.143Z,99499.03
2022-12-23T20:30:11.195Z,99492.06
2022-12-23T20:34:17.272Z,99499.91
2022-12-23T20:38:19.766Z,99498.78
2022-12-23T20:42:21.723Z,99494.78
2022-12-23T20:46:23.821Z,99502.47
2022-12-23T20:50:25.573Z,99490.47
2022-12-23T20:54:32.725Z,99489.06
2022-12-23T20:58:57.799Z,99490.09
2022-12-23T21:03:03.827Z,99487.22
2022-12-23T21:07:08.704Z,99478.34
2022-12-23T21:11:10.697Z,99479.03
2022-12-23T21:15:12.479Z,99472.56
2022-12-23T21:19:20.529Z,99482.00
2022-12-23T21:23:22.212Z,99469.03
2022-12-23T21:27:24.190Z,99476.34
2022-12-23T21:31:27.516Z,99490.25
2022-12-23T21:35:29.361Z,99487.50
2022-12-23T21:39:31.547Z,99484.88
2022-12-23T21:43:33.921Z,99498.47
2022-12-23T21:47:36.308Z,99500.81
2022-12-23T21:51:40.639Z,99501.97
2022-12-23T21:55:43.297Z,99507.25
2022-12-23T21:59:45.206Z,99506.94
2022-12-23T22:03:49.247Z,99507.09
2022-12-23T22:07:51.165Z,99501.09
2022-12-23T22:11:52.861Z,99497.50
2022-12-23T22:15:54.877Z,99503.78
2022-12-23T22:19:56.805Z,99516.25
2022-12-23T22:23:59.529Z,99515.56
2022-12-23T22:28:02.915Z,99521.13
2022-12-23T22:32:05.112Z,99520.78
2022-12-23T22:36:09.238Z,99525.41
2022-12-23T22:40:11.457Z,99510.50
2022-12-23T22:44:13.621Z,99511.94
2022-12-23T22:48:15.547Z,99516.09
2022-12-23T22:52:17.579Z,99512.63
2022-12-23T22:56:20.891Z,99515.56
2022-12-23T23:00:22.648Z,99520.69
2022-12-23T23:04:24.591Z,99517.34
2022-12-23T23:08:27.272Z,99527.53
2022-12-23T23:12:29.268Z,99522.91
2022-12-23T23:16:31.767Z,99529.09
2022-12-23T23:20:33.459Z,99526.59
2022-12-23T23:24:35.439Z,99525.19
2022-12-23T23:28:39.323Z,99535.50
2022-12-23T23:32:41.417Z,99534.31
2022-12-23T23:36:43.246Z,99532.06
2022-12-23T23:40:47.731Z,99520.22
2022-12-23T23:44:49.385Z,99506.59
2022-12-23T23:48:51.352Z,99501.72
2022-12-23T23:52:52.993Z,99501.09
2022-12-23T23:56:55.043Z,99525.56
